Grandview, Iowa
Current Conditions -  °F | °C
As of 4:35 AM on Sunday 21 Dec 2014 (Local Time) from KMUT Reporting Station
Haze Haze  
Wind Chill: 37°   Ceiling: 3600
Heat Index: 37°   Visibility: 5mi
Dew Point: 34°   Wind: 3mph
Humidity: 87%   Direction: 160°SSE
Pressure: 30.13"   Gusts: NA
Location:  41.28°N, 91.19°W
Report Text: KMUT 211035Z AUTO 16003KT 5SM BR OVC036 03/01 A3013 RMK AO2
Loading
Personal Weather Stations






























Interactive Weather Map New forecast layout! Learn more

10-Day Weather Forecast

Advertisements
Track Severe Weather on mobile